createdAt,value
2023-02-27T00:00:48.332Z,2.19
2023-02-27T00:01:48.370Z,2.22
2023-02-27T00:02:48.559Z,2.21
2023-02-27T00:03:48.480Z,2.23
2023-02-27T00:04:48.431Z,2.22
2023-02-27T00:05:48.462Z,2.22
2023-02-27T00:06:48.497Z,2.19
2023-02-27T00:07:48.521Z,2.12
2023-02-27T00:08:48.582Z,2.12
2023-02-27T00:09:48.639Z,2.12
2023-02-27T00:10:48.686Z,2.08
2023-02-27T00:11:48.713Z,2.01
2023-02-27T00:12:48.736Z,2.00
2023-02-27T00:13:48.760Z,1.97
2023-02-27T00:14:48.826Z,1.95
2023-02-27T00:15:48.901Z,1.93
2023-02-27T00:16:48.841Z,1.89
2023-02-27T00:17:48.881Z,1.86
2023-02-27T00:18:48.912Z,1.88
2023-02-27T00:19:48.954Z,1.78
2023-02-27T00:20:49.016Z,1.76
2023-02-27T00:21:49.061Z,1.71
2023-02-27T00:22:49.123Z,1.68
2023-02-27T00:23:49.143Z,1.74
2023-02-27T00:24:49.182Z,1.76
2023-02-27T00:25:49.213Z,1.66
2023-02-27T00:26:49.264Z,1.63
2023-02-27T00:27:49.310Z,1.56
2023-02-27T00:28:49.341Z,1.63
2023-02-27T00:29:49.381Z,1.66
2023-02-27T00:30:49.471Z,1.66
2023-02-27T00:31:49.503Z,1.70
2023-02-27T00:32:49.452Z,1.76
2023-02-27T00:33:49.481Z,1.71
2023-02-27T00:34:49.502Z,1.70
2023-02-27T00:35:49.556Z,1.58
2023-02-27T00:36:49.596Z,1.56
2023-02-27T00:37:49.638Z,1.43
2023-02-27T00:38:49.682Z,1.42
2023-02-27T00:39:49.719Z,1.34
2023-02-27T00:40:49.752Z,1.30
2023-02-27T00:41:49.803Z,1.30
2023-02-27T00:42:49.830Z,1.38
2023-02-27T00:43:49.867Z,1.40
2023-02-27T00:44:49.924Z,1.36
2023-02-27T00:45:49.951Z,1.28
2023-02-27T00:46:50.014Z,1.32
2023-02-27T00:47:49.993Z,1.32
2023-02-27T00:48:50.022Z,1.30
2023-02-27T00:49:50.075Z,1.32
2023-02-27T00:50:50.113Z,1.28
2023-02-27T00:51:50.149Z,1.32
2023-02-27T00:52:50.171Z,1.38
2023-02-27T00:53:50.221Z,1.32
2023-02-27T00:54:50.272Z,1.42
2023-02-27T00:55:50.305Z,1.50
2023-02-27T00:56:50.350Z,1.53
2023-02-27T00:57:50.429Z,1.53
2023-02-27T00:58:50.401Z,1.56
2023-02-27T00:59:50.466Z,1.57
2023-02-27T01:00:50.521Z,1.58
2023-02-27T01:01:50.512Z,1.58
2023-02-27T01:02:50.577Z,1.56
2023-02-27T01:03:50.574Z,1.50
2023-02-27T01:04:50.616Z,1.53
2023-02-27T01:05:50.656Z,1.43
2023-02-27T01:06:50.693Z,1.56
2023-02-27T01:07:50.740Z,1.74
2023-02-27T01:08:50.778Z,1.79
2023-02-27T01:09:50.820Z,1.76
2023-02-27T01:10:50.859Z,1.74
2023-02-27T01:11:50.897Z,1.67
2023-02-27T01:12:50.945Z,1.61
2023-02-27T01:13:50.968Z,1.52
2023-02-27T01:14:50.998Z,1.49
2023-02-27T01:15:50.988Z,1.42
2023-02-27T01:16:51.028Z,1.42
2023-02-27T01:17:51.068Z,1.45
2023-02-27T01:18:51.072Z,1.43
2023-02-27T01:19:51.060Z,1.45
2023-02-27T01:20:51.062Z,1.22
2023-02-27T01:21:51.065Z,1.14
2023-02-27T01:22:51.099Z,1.20
2023-02-27T01:23:51.122Z,1.21
2023-02-27T01:24:51.139Z,1.20
2023-02-27T01:25:51.170Z,1.32
2023-02-27T01:26:51.203Z,1.42
2023-02-27T01:27:51.222Z,1.52
2023-02-27T01:28:51.366Z,1.56
2023-02-27T01:29:51.310Z,1.49
2023-02-27T01:30:51.375Z,1.52
2023-02-27T01:31:51.475Z,1.46
2023-02-27T01:32:51.377Z,1.45
2023-02-27T01:33:51.422Z,1.43
2023-02-27T01:34:51.443Z,1.39
2023-02-27T01:35:51.483Z,1.25
2023-02-27T01:36:51.505Z,1.16
2023-02-27T01:37:51.533Z,1.06
2023-02-27T01:38:51.582Z,1.04
2023-02-27T01:39:51.617Z,0.99
2023-02-27T01:40:51.633Z,0.94
2023-02-27T01:41:51.662Z,0.81
2023-02-27T01:42:51.707Z,0.82
2023-02-27T01:43:51.752Z,0.78
2023-02-27T01:44:51.785Z,0.74
2023-02-27T01:45:51.832Z,0.77
2023-02-27T01:46:51.872Z,0.74
2023-02-27T01:47:51.903Z,0.73
2023-02-27T01:48:51.952Z,0.78
2023-02-27T01:49:52.002Z,0.74
2023-02-27T01:50:52.060Z,0.67
2023-02-27T01:51:52.081Z,0.68
2023-02-27T01:52:52.123Z,0.70
2023-02-27T01:53:52.167Z,0.76
2023-02-27T01:54:52.194Z,0.73
2023-02-27T01:55:52.228Z,0.74
2023-02-27T01:56:52.263Z,0.81
2023-02-27T01:57:52.286Z,0.85
2023-02-27T01:58:52.323Z,0.94
2023-02-27T01:59:52.374Z,1.06
2023-02-27T02:00:52.448Z,1.12
2023-02-27T02:01:52.424Z,1.13
2023-02-27T02:02:52.463Z,1.16
2023-02-27T02:03:52.507Z,1.22
2023-02-27T02:04:52.543Z,1.24
2023-02-27T02:05:52.594Z,1.22
2023-02-27T02:06:52.623Z,1.20
2023-02-27T02:07:52.665Z,1.14
2023-02-27T02:08:52.704Z,1.16
2023-02-27T02:09:52.736Z,1.14
2023-02-27T02:10:52.774Z,1.09
2023-02-27T02:11:52.809Z,1.06
2023-02-27T02:12:52.815Z,1.06
2023-02-27T02:13:52.834Z,1.09
2023-02-27T02:14:52.875Z,1.07
2023-02-27T02:15:52.896Z,1.03
2023-02-27T02:16:52.944Z,1.06
2023-02-27T02:17:52.964Z,1.06
2023-02-27T02:18:52.994Z,1.10
2023-02-27T02:19:53.023Z,1.16
2023-02-27T02:20:53.054Z,1.09
2023-02-27T02:21:53.087Z,1.09
2023-02-27T02:22:53.126Z,1.12
2023-02-27T02:23:53.185Z,0.96
2023-02-27T02:24:53.214Z,0.95
2023-02-27T02:25:53.235Z,0.91
2023-02-27T02:26:53.274Z,0.84
2023-02-27T02:27:53.287Z,0.84
2023-02-27T02:28:53.325Z,0.85
2023-02-27T02:29:53.398Z,0.89
2023-02-27T02:30:53.498Z,0.88
2023-02-27T02:31:53.655Z,0.89
2023-02-27T02:32:53.506Z,0.91
2023-02-27T02:33:53.540Z,0.95
2023-02-27T02:34:53.562Z,0.96
2023-02-27T02:35:53.588Z,0.91
2023-02-27T02:36:53.640Z,0.96
2023-02-27T02:37:53.671Z,0.96
2023-02-27T02:38:53.701Z,0.99
2023-02-27T02:39:53.737Z,0.95
2023-02-27T02:40:53.760Z,0.78
2023-02-27T02:41:53.808Z,0.73
2023-02-27T02:42:53.845Z,0.66
2023-02-27T02:43:53.880Z,0.64
2023-02-27T02:44:53.897Z,0.56
2023-02-27T02:45:53.964Z,0.44
2023-02-27T02:46:53.929Z,0.30
2023-02-27T02:47:53.968Z,0.29
2023-02-27T02:48:53.999Z,0.26
2023-02-27T02:49:54.060Z,0.16
2023-02-27T02:50:54.104Z,0.18
2023-02-27T02:51:54.139Z,0.13
2023-02-27T02:52:54.170Z,0.20
2023-02-27T02:53:54.211Z,0.29
2023-02-27T02:54:54.251Z,0.30
2023-02-27T02:55:54.290Z,0.45
2023-02-27T02:56:54.339Z,0.48
2023-02-27T02:57:54.368Z,0.58
2023-02-27T02:58:54.399Z,0.55
2023-02-27T02:59:54.429Z,0.59
2023-02-27T03:00:54.479Z,0.67
2023-02-27T03:01:54.520Z,0.63
2023-02-27T03:02:54.551Z,0.68
2023-02-27T03:03:54.550Z,0.76
2023-02-27T03:04:54.581Z,0.64
2023-02-27T03:05:54.630Z,0.70
2023-02-27T03:06:54.680Z,0.59
2023-02-27T03:07:54.792Z,0.55
2023-02-27T03:08:54.743Z,0.47
2023-02-27T03:09:54.791Z,0.48
2023-02-27T03:10:54.831Z,0.52
2023-02-27T03:11:54.881Z,0.59
2023-02-27T03:12:54.924Z,0.63
2023-02-27T03:13:54.945Z,0.66
2023-02-27T03:14:54.975Z,0.67
2023-02-27T03:15:55.030Z,0.77
2023-02-27T03:16:55.082Z,0.77
2023-02-27T03:17:55.112Z,0.74
2023-02-27T03:18:55.162Z,0.73
2023-02-27T03:19:55.169Z,0.74
2023-02-27T03:20:55.236Z,0.82
2023-02-27T03:21:55.239Z,0.77
2023-02-27T03:22:55.277Z,0.76
2023-02-27T03:23:55.317Z,0.73
2023-02-27T03:24:55.350Z,0.71
2023-02-27T03:25:57.228Z,0.76
2023-02-27T03:26:55.477Z,0.81
2023-02-27T03:27:55.506Z,0.73
2023-02-27T03:28:55.542Z,0.76
2023-02-27T03:29:55.568Z,0.73
2023-02-27T03:30:55.686Z,0.76
2023-02-27T03:31:55.673Z,0.74
2023-02-27T03:32:55.668Z,0.76
2023-02-27T03:33:55.708Z,0.70
2023-02-27T03:34:55.735Z,0.67
2023-02-27T03:35:55.764Z,0.76
2023-02-27T03:36:55.791Z,0.86
2023-02-27T03:37:55.819Z,0.85
2023-02-27T03:38:55.866Z,0.84
2023-02-27T03:39:55.896Z,0.88
2023-02-27T03:40:55.916Z,0.91
2023-02-27T03:41:55.937Z,0.89
2023-02-27T03:42:55.977Z,0.91
2023-02-27T03:43:56.009Z,0.82
2023-02-27T03:44:56.057Z,0.77
2023-02-27T03:45:56.109Z,0.71
2023-02-27T03:46:56.150Z,0.67
2023-02-27T03:47:56.166Z,0.67
2023-02-27T03:48:56.199Z,0.68
2023-02-27T03:49:56.220Z,0.66
2023-02-27T03:50:56.266Z,0.68
2023-02-27T03:51:56.300Z,0.64
2023-02-27T03:52:56.354Z,0.63
2023-02-27T03:53:56.366Z,0.61
2023-02-27T03:54:56.399Z,0.55
2023-02-27T03:55:56.432Z,0.58
2023-02-27T03:56:56.481Z,0.63
2023-02-27T03:57:56.508Z,0.64
2023-02-27T03:58:56.529Z,0.59
2023-02-27T03:59:56.568Z,0.58
2023-02-27T04:00:56.611Z,0.61
2023-02-27T04:01:56.754Z,0.55
2023-02-27T04:02:56.723Z,0.51
2023-02-27T04:03:56.756Z,0.48
2023-02-27T04:04:56.798Z,0.49
2023-02-27T04:05:56.849Z,0.49
2023-02-27T04:06:56.904Z,0.48
2023-02-27T04:07:56.969Z,0.40
2023-02-27T04:08:56.999Z,0.37
2023-02-27T04:09:57.039Z,0.34
2023-02-27T04:10:57.070Z,0.34
2023-02-27T04:11:57.104Z,0.30
2023-02-27T04:12:57.150Z,0.27
2023-02-27T04:13:57.180Z,0.26
2023-02-27T04:14:57.218Z,0.26
2023-02-27T04:15:57.280Z,0.15
2023-02-27T04:16:57.323Z,0.09
2023-02-27T04:17:57.352Z,0.19
2023-02-27T04:18:57.379Z,0.34
2023-02-27T04:19:57.438Z,0.30
2023-02-27T04:20:57.485Z,0.31
2023-02-27T04:21:57.498Z,0.42
2023-02-27T04:22:57.530Z,0.44
2023-02-27T04:23:57.565Z,0.49
2023-02-27T04:24:57.620Z,0.52
2023-02-27T04:25:57.697Z,0.56
2023-02-27T04:26:57.720Z,0.49
2023-02-27T04:27:57.743Z,0.56
2023-02-27T04:28:57.772Z,0.51
2023-02-27T04:29:57.812Z,0.56
2023-02-27T04:30:57.933Z,0.55
2023-02-27T04:31:58.098Z,0.51
2023-02-27T04:32:57.925Z,0.55
2023-02-27T04:33:57.965Z,0.49
2023-02-27T04:34:57.998Z,0.44
2023-02-27T04:35:58.045Z,0.31
2023-02-27T04:36:58.079Z,0.19
2023-02-27T04:37:58.099Z,0.23
2023-02-27T04:38:58.158Z,0.15
2023-02-27T04:39:58.208Z,0.13
2023-02-27T04:40:58.258Z,0.06
2023-02-27T04:41:58.258Z,-0.06
2023-02-27T04:42:58.302Z,-0.12
2023-02-27T04:43:58.380Z,-0.10
2023-02-27T04:44:58.430Z,-0.10
2023-02-27T04:45:58.542Z,-0.17
2023-02-27T04:46:58.521Z,-0.15
2023-02-27T04:47:58.580Z,-0.18
2023-02-27T04:48:58.662Z,-0.23
2023-02-27T04:49:58.645Z,-0.21
2023-02-27T04:50:58.709Z,-0.23
2023-02-27T04:51:58.780Z,-0.23
2023-02-27T04:52:58.761Z,-0.26
2023-02-27T04:53:58.781Z,-0.23
2023-02-27T04:54:58.751Z,-0.27
2023-02-27T04:55:58.841Z,-0.24
2023-02-27T04:56:58.812Z,-0.23
2023-02-27T04:57:58.883Z,-0.17
2023-02-27T04:58:58.947Z,-0.17
2023-02-27T04:59:58.923Z,-0.35
2023-02-27T05:00:59.004Z,-0.31
2023-02-27T05:01:59.272Z,-0.33
2023-02-27T05:02:59.098Z,-0.27
2023-02-27T05:04:00.595Z,-0.18
2023-02-27T05:04:59.110Z,-0.09
2023-02-27T05:05:59.172Z,-0.03
2023-02-27T05:06:59.171Z,0.05
2023-02-27T05:07:59.204Z,0.11
2023-02-27T05:08:59.249Z,0.18
2023-02-27T05:09:59.290Z,0.16
2023-02-27T05:10:59.370Z,0.20
2023-02-27T05:11:59.464Z,0.19
2023-02-27T05:12:59.467Z,0.19
2023-02-27T05:13:59.502Z,0.16
2023-02-27T05:14:59.542Z,0.12
2023-02-27T05:15:59.653Z,0.15
2023-02-27T05:16:59.592Z,0.15
2023-02-27T05:17:59.609Z,0.11
2023-02-27T05:18:59.561Z,0.06
2023-02-27T05:19:59.593Z,0.01
2023-02-27T05:20:59.612Z,0.08
2023-02-27T05:21:59.643Z,0.09
2023-02-27T05:22:59.691Z,0.08
2023-02-27T05:23:59.726Z,0.02
2023-02-27T05:24:59.742Z,0.05
2023-02-27T05:25:59.778Z,0.06
2023-02-27T05:26:59.801Z,0.01
2023-02-27T05:27:59.833Z,-0.05
2023-02-27T05:28:59.911Z,-0.05
2023-02-27T05:29:59.871Z,-0.06
2023-02-27T05:30:59.921Z,-0.06
2023-02-27T05:32:00.046Z,-0.12
2023-02-27T05:33:00.007Z,-0.13
2023-02-27T05:33:59.962Z,-0.07
2023-02-27T05:35:00.014Z,-0.15
2023-02-27T05:36:00.113Z,-0.13
2023-02-27T05:37:00.138Z,-0.18
2023-02-27T05:38:00.210Z,-0.13
2023-02-27T05:39:00.259Z,-0.10
2023-02-27T05:40:00.331Z,-0.12
2023-02-27T05:41:00.313Z,-0.17
2023-02-27T05:42:00.371Z,-0.24
2023-02-27T05:43:00.439Z,-0.28
2023-02-27T05:44:00.500Z,-0.26
2023-02-27T05:45:00.609Z,-0.27
2023-02-27T05:46:00.602Z,-0.28
2023-02-27T05:47:00.609Z,-0.24
2023-02-27T05:48:00.641Z,-0.28
2023-02-27T05:49:00.642Z,-0.36
2023-02-27T05:50:00.649Z,-0.39
2023-02-27T05:51:00.662Z,-0.41
2023-02-27T05:52:00.694Z,-0.38
2023-02-27T05:53:00.696Z,-0.36
2023-02-27T05:54:00.699Z,-0.36
2023-02-27T05:55:00.709Z,-0.41
2023-02-27T05:56:00.730Z,-0.46
2023-02-27T05:57:00.734Z,-0.49
2023-02-27T05:58:00.751Z,-0.53
2023-02-27T05:59:00.768Z,-0.51
2023-02-27T06:00:00.793Z,-0.49
2023-02-27T06:01:00.807Z,-0.56
2023-02-27T06:02:00.840Z,-0.51
2023-02-27T06:03:00.853Z,-0.45
2023-02-27T06:04:00.854Z,-0.31
2023-02-27T06:05:00.835Z,-0.27
2023-02-27T06:06:00.905Z,-0.17
2023-02-27T06:07:00.965Z,-0.09
2023-02-27T06:08:01.009Z,-0.02
2023-02-27T06:09:01.099Z,0.02
2023-02-27T06:10:01.174Z,0.06
2023-02-27T06:11:01.127Z,0.05
2023-02-27T06:12:01.197Z,0.06
2023-02-27T06:13:01.197Z,0.09
2023-02-27T06:14:01.206Z,0.12
2023-02-27T06:15:01.206Z,0.08
2023-02-27T06:16:01.245Z,0.01
2023-02-27T06:17:01.319Z,-0.03
2023-02-27T06:18:01.246Z,-0.02
2023-02-27T06:19:02.584Z,-0.03
2023-02-27T06:20:01.317Z,-0.10
2023-02-27T06:21:01.299Z,-0.15
2023-02-27T06:22:01.331Z,-0.17
2023-02-27T06:23:01.350Z,-0.10
2023-02-27T06:24:01.404Z,-0.13
2023-02-27T06:25:01.418Z,-0.17
2023-02-27T06:26:01.420Z,-0.15
2023-02-27T06:27:01.419Z,0.05
2023-02-27T06:28:01.426Z,0.20
2023-02-27T06:29:01.495Z,0.34
2023-02-27T06:30:01.537Z,0.45
2023-02-27T06:31:01.610Z,0.47
2023-02-27T06:32:01.635Z,0.36
2023-02-27T06:33:01.648Z,0.37
2023-02-27T06:34:01.684Z,0.44
2023-02-27T06:35:01.683Z,0.49
2023-02-27T06:36:01.731Z,0.59
2023-02-27T06:37:04.146Z,0.70
2023-02-27T06:38:01.825Z,0.66
2023-02-27T06:39:01.874Z,0.68
2023-02-27T06:40:01.949Z,0.74
2023-02-27T06:41:01.973Z,0.91
2023-02-27T06:42:01.983Z,1.12
2023-02-27T06:43:02.053Z,1.43
2023-02-27T06:44:02.123Z,1.88
2023-02-27T06:45:02.295Z,2.30
2023-02-27T06:46:02.243Z,2.62
2023-02-27T06:47:02.223Z,2.83
2023-02-27T06:48:02.213Z,3.11
2023-02-27T06:49:02.296Z,3.26
2023-02-27T06:50:02.285Z,3.36
2023-02-27T06:51:02.342Z,3.08
2023-02-27T06:52:02.409Z,2.77
2023-02-27T06:53:02.385Z,2.54
2023-02-27T06:54:02.445Z,2.30
2023-02-27T06:55:02.515Z,2.14
2023-02-27T06:56:02.562Z,2.03
2023-02-27T06:57:02.557Z,1.92
2023-02-27T06:58:02.623Z,2.14
2023-02-27T06:59:02.605Z,2.51
2023-02-27T07:00:02.673Z,2.95
2023-02-27T07:01:02.752Z,3.48
2023-02-27T07:02:02.765Z,3.86
2023-02-27T07:03:02.812Z,4.16
2023-02-27T07:04:02.825Z,4.46
2023-02-27T07:05:08.264Z,4.64
2023-02-27T07:06:02.918Z,4.94
2023-02-27T07:07:33.869Z,5.19
2023-02-27T07:08:02.978Z,5.46
2023-02-27T07:09:07.007Z,5.67
2023-02-27T07:10:03.021Z,5.94
2023-02-27T07:11:03.047Z,6.05
2023-02-27T07:12:03.067Z,6.05
2023-02-27T07:13:03.087Z,5.94
2023-02-27T07:14:03.106Z,5.94
2023-02-27T07:15:03.169Z,5.98
2023-02-27T07:16:03.316Z,6.01
2023-02-27T07:17:03.301Z,6.01
2023-02-27T07:18:03.269Z,6.09
2023-02-27T07:19:03.289Z,6.19
2023-02-27T07:20:03.343Z,6.28
2023-02-27T07:21:03.378Z,6.36
2023-02-27T07:22:03.390Z,6.56
2023-02-27T07:23:03.406Z,6.70
2023-02-27T07:24:03.418Z,6.82
2023-02-27T07:25:03.451Z,6.75
2023-02-27T07:26:03.496Z,6.75
2023-02-27T07:27:03.506Z,6.92
2023-02-27T07:28:03.528Z,7.13
2023-02-27T07:29:03.543Z,7.31
2023-02-27T07:30:03.561Z,7.29
2023-02-27T07:31:03.668Z,7.05
2023-02-27T07:32:03.708Z,7.23
2023-02-27T07:33:03.674Z,7.43
2023-02-27T07:34:03.687Z,7.56
2023-02-27T07:35:03.722Z,7.74
2023-02-27T07:36:03.734Z,7.88
2023-02-27T07:37:03.783Z,8.01
2023-02-27T07:38:03.832Z,8.02
2023-02-27T07:39:03.848Z,8.02
2023-02-27T07:40:03.915Z,8.14
2023-02-27T07:41:03.981Z,8.31
2023-02-27T07:42:04.049Z,8.56
2023-02-27T07:43:04.114Z,8.82
2023-02-27T07:44:04.167Z,9.15
2023-02-27T07:45:04.220Z,9.26
2023-02-27T07:46:04.321Z,9.02
2023-02-27T07:47:04.318Z,8.95
2023-02-27T07:48:04.375Z,8.89
2023-02-27T07:49:04.425Z,9.05
2023-02-27T07:50:04.783Z,9.31
2023-02-27T07:51:04.547Z,8.68
2023-02-27T07:52:04.596Z,7.99
2023-02-27T07:53:04.648Z,7.32
2023-02-27T07:54:04.707Z,7.01
2023-02-27T07:55:04.774Z,7.31
2023-02-27T07:56:04.819Z,7.53
2023-02-27T07:57:04.868Z,8.11
2023-02-27T07:58:04.900Z,8.31
2023-02-27T07:59:04.940Z,8.57
2023-02-27T08:00:05.007Z,8.92
2023-02-27T08:01:05.068Z,8.93
2023-02-27T08:02:05.118Z,9.09
2023-02-27T08:03:05.149Z,9.39
2023-02-27T08:04:05.191Z,9.33
2023-02-27T08:05:05.350Z,9.39
2023-02-27T08:06:05.263Z,9.30
2023-02-27T08:07:05.313Z,9.05
2023-02-27T08:08:05.363Z,9.42
2023-02-27T08:09:05.414Z,9.64
2023-02-27T08:10:05.472Z,9.51
2023-02-27T08:11:05.497Z,9.33
2023-02-27T08:12:05.528Z,9.36
2023-02-27T08:13:05.593Z,8.95
2023-02-27T08:14:05.688Z,9.02
2023-02-27T08:15:05.658Z,9.02
2023-02-27T08:16:05.771Z,9.49
2023-02-27T08:17:05.705Z,9.74
2023-02-27T08:18:05.748Z,9.55
2023-02-27T08:19:05.797Z,9.54
2023-02-27T08:20:05.841Z,10.00
2023-02-27T08:21:05.887Z,10.42
2023-02-27T08:22:05.940Z,10.36
2023-02-27T08:23:05.954Z,9.67
2023-02-27T08:24:05.942Z,9.69
2023-02-27T08:25:05.972Z,10.10
2023-02-27T08:26:06.053Z,9.91
2023-02-27T08:27:06.126Z,9.54
2023-02-27T08:28:06.084Z,9.88
2023-02-27T08:29:06.083Z,10.49
2023-02-27T08:30:06.084Z,10.57
2023-02-27T08:31:06.221Z,10.86
2023-02-27T08:32:06.275Z,11.07
2023-02-27T08:33:06.275Z,11.44
2023-02-27T08:34:10.144Z,10.55
2023-02-27T08:35:06.303Z,9.84
2023-02-27T08:36:06.510Z,9.72
2023-02-27T08:37:06.426Z,9.88
2023-02-27T08:38:06.464Z,9.47
2023-02-27T08:39:06.553Z,9.03
2023-02-27T08:40:06.544Z,9.54
2023-02-27T08:41:06.584Z,9.73
2023-02-27T08:42:06.616Z,10.18
2023-02-27T08:43:06.688Z,9.84
2023-02-27T08:44:06.760Z,9.33
2023-02-27T08:45:06.785Z,9.05
2023-02-27T08:46:06.853Z,9.15
2023-02-27T08:47:06.841Z,9.66
2023-02-27T08:48:06.910Z,10.41
2023-02-27T08:49:06.910Z,9.81
2023-02-27T08:50:06.909Z,9.69
2023-02-27T08:51:06.966Z,8.74
2023-02-27T08:52:06.997Z,8.35
2023-02-27T08:53:07.039Z,8.68
2023-02-27T08:54:07.067Z,9.22
2023-02-27T08:55:07.139Z,9.87
2023-02-27T08:56:07.113Z,9.97
2023-02-27T08:57:07.127Z,9.15
2023-02-27T08:58:07.146Z,9.09
2023-02-27T08:59:07.172Z,9.33
2023-02-27T09:00:07.254Z,9.39
2023-02-27T09:01:07.232Z,9.51
2023-02-27T09:02:07.252Z,9.44
2023-02-27T09:03:07.305Z,9.29
2023-02-27T09:04:07.341Z,9.77
2023-02-27T09:05:07.357Z,10.28
2023-02-27T09:06:07.397Z,10.30
2023-02-27T09:07:07.449Z,10.51
2023-02-27T09:08:07.493Z,11.10
2023-02-27T09:09:07.537Z,11.02
2023-02-27T09:10:07.618Z,11.18
2023-02-27T09:11:07.592Z,11.26
2023-02-27T09:12:07.628Z,11.20
2023-02-27T09:13:07.679Z,11.78
2023-02-27T09:14:07.753Z,11.97
2023-02-27T09:15:07.729Z,12.07
2023-02-27T09:16:07.862Z,12.11
2023-02-27T09:17:07.847Z,12.61
2023-02-27T09:18:07.881Z,12.26
2023-02-27T09:19:07.952Z,11.78
2023-02-27T09:20:08.003Z,11.83
2023-02-27T09:21:08.053Z,11.53
2023-02-27T09:22:08.093Z,11.74
2023-02-27T09:23:08.150Z,11.60
2023-02-27T09:24:19.304Z,11.88
2023-02-27T09:25:08.237Z,12.73
2023-02-27T09:26:08.229Z,12.93
2023-02-27T09:27:08.233Z,12.47
2023-02-27T09:28:08.250Z,12.61
2023-02-27T09:29:08.249Z,12.76
2023-02-27T09:30:08.248Z,12.00
2023-02-27T09:31:08.286Z,11.96
2023-02-27T09:32:08.406Z,12.05
2023-02-27T09:33:08.358Z,12.17
2023-02-27T09:34:08.276Z,12.80
2023-02-27T09:35:08.288Z,12.53
2023-02-27T09:36:08.358Z,12.94
2023-02-27T09:37:08.312Z,13.11
2023-02-27T09:38:08.307Z,13.01
2023-02-27T09:39:08.303Z,12.98
2023-02-27T09:40:08.310Z,12.39
2023-02-27T09:41:08.331Z,12.65
2023-02-27T09:42:08.364Z,12.93
2023-02-27T09:43:08.389Z,12.72
2023-02-27T09:44:08.394Z,12.88
2023-02-27T09:45:08.399Z,13.06
2023-02-27T09:46:08.436Z,13.05
2023-02-27T09:47:08.465Z,13.21
2023-02-27T09:48:08.472Z,13.54
2023-02-27T09:49:08.477Z,13.62
2023-02-27T09:50:08.487Z,13.62
2023-02-27T09:51:08.532Z,13.82
2023-02-27T09:52:08.529Z,14.04
2023-02-27T09:53:08.530Z,13.19
2023-02-27T09:54:08.558Z,12.93
2023-02-27T09:55:08.559Z,12.70
2023-02-27T09:56:08.601Z,12.76
2023-02-27T09:57:08.616Z,13.24
2023-02-27T09:58:08.630Z,13.42
2023-02-27T09:59:08.640Z,13.33
2023-02-27T10:00:08.658Z,13.60
2023-02-27T10:01:08.693Z,14.05
2023-02-27T10:02:08.745Z,13.87
2023-02-27T10:03:08.799Z,13.82
2023-02-27T10:04:10.992Z,13.95
2023-02-27T10:05:08.845Z,13.40
2023-02-27T10:06:08.842Z,13.60
2023-02-27T10:07:08.869Z,13.94
2023-02-27T10:08:08.879Z,14.25
2023-02-27T10:09:08.890Z,14.45
2023-02-27T10:10:08.886Z,14.52
2023-02-27T10:11:08.900Z,13.16
2023-02-27T10:12:08.908Z,13.30
2023-02-27T10:13:08.921Z,12.86
2023-02-27T10:14:08.941Z,12.83
2023-02-27T10:15:08.948Z,12.84
2023-02-27T10:16:08.949Z,12.33
2023-02-27T10:17:09.069Z,12.39
2023-02-27T10:18:23.907Z,12.80
2023-02-27T10:19:09.012Z,12.98
2023-02-27T10:20:09.036Z,13.64
2023-02-27T10:21:09.043Z,13.76
2023-02-27T10:22:09.063Z,13.08
2023-02-27T10:23:09.095Z,13.28
2023-02-27T10:24:09.096Z,13.28
2023-02-27T10:25:24.809Z,12.68
2023-02-27T10:26:09.126Z,12.65
2023-02-27T10:27:09.187Z,13.21
2023-02-27T10:28:09.212Z,13.76
2023-02-27T10:29:09.256Z,13.78
2023-02-27T10:30:11.186Z,14.00
2023-02-27T10:31:09.335Z,13.73
2023-02-27T10:32:09.342Z,13.60
2023-02-27T10:33:09.319Z,13.65
2023-02-27T10:34:09.385Z,14.01
2023-02-27T10:35:09.460Z,14.15
2023-02-27T10:36:09.482Z,14.03
2023-02-27T10:37:09.473Z,13.31
2023-02-27T10:38:09.521Z,13.57
2023-02-27T10:39:09.572Z,12.86
2023-02-27T10:40:09.622Z,12.61
2023-02-27T10:41:09.573Z,12.84
2023-02-27T10:42:09.623Z,13.30
2023-02-27T10:43:09.672Z,13.39
2023-02-27T10:44:09.721Z,13.60
2023-02-27T10:45:09.793Z,13.60
2023-02-27T10:46:09.872Z,13.05
2023-02-27T10:47:09.883Z,12.90
2023-02-27T10:48:09.926Z,12.91
2023-02-27T10:49:09.931Z,13.30
2023-02-27T10:50:09.983Z,13.33
2023-02-27T10:51:09.995Z,13.27
2023-02-27T10:52:10.043Z,12.62
2023-02-27T10:54:36.039Z,12.23
2023-02-27T10:55:36.091Z,12.35
2023-02-27T10:58:02.071Z,13.46
2023-02-27T11:00:28.118Z,13.08
2023-02-27T11:01:28.579Z,12.00
2023-02-27T11:02:28.121Z,12.08
2023-02-27T11:03:28.184Z,11.95
2023-02-27T11:04:28.275Z,11.58
2023-02-27T11:05:28.270Z,11.97
2023-02-27T11:06:28.268Z,11.88
2023-02-27T11:07:28.321Z,11.76
2023-02-27T11:08:28.336Z,12.43
2023-02-27T11:09:28.374Z,12.86
2023-02-27T11:10:28.385Z,12.83
2023-02-27T11:11:28.740Z,12.02
2023-02-27T11:12:28.415Z,11.41
2023-02-27T11:13:28.442Z,10.87
2023-02-27T11:14:28.451Z,10.15
2023-02-27T11:15:28.560Z,9.97
2023-02-27T11:16:28.580Z,10.13
2023-02-27T11:17:28.599Z,11.04
2023-02-27T11:18:28.674Z,11.34
2023-02-27T11:19:28.557Z,11.59
2023-02-27T11:20:28.618Z,10.94
2023-02-27T11:21:28.951Z,11.19
2023-02-27T11:22:28.610Z,11.59
2023-02-27T11:23:28.615Z,12.18
2023-02-27T11:24:28.644Z,12.28
2023-02-27T11:25:28.646Z,12.69
2023-02-27T11:26:28.793Z,12.43
2023-02-27T11:27:28.773Z,11.89
2023-02-27T11:28:28.744Z,11.55
2023-02-27T11:29:28.787Z,11.16
2023-02-27T11:30:28.825Z,10.84
2023-02-27T11:31:29.264Z,10.39
2023-02-27T11:32:28.876Z,10.28
2023-02-27T11:33:28.905Z,11.12
2023-02-27T11:34:28.989Z,11.77
2023-02-27T11:35:29.058Z,12.12
2023-02-27T11:36:29.028Z,12.78
2023-02-27T11:37:29.163Z,13.27
2023-02-27T11:38:29.127Z,12.57
2023-02-27T11:39:29.176Z,11.96
2023-02-27T11:40:29.220Z,10.83
2023-02-27T11:41:29.606Z,10.21
2023-02-27T11:42:29.253Z,10.06
2023-02-27T11:43:29.259Z,9.87
2023-02-27T11:44:49.774Z,9.94
2023-02-27T11:46:10.199Z,10.24
2023-02-27T11:46:46.471Z,10.31
2023-02-27T11:47:29.522Z,10.57
2023-02-27T11:48:29.438Z,10.58
2023-02-27T11:49:29.440Z,10.98
2023-02-27T11:50:29.542Z,11.20
2023-02-27T11:51:29.721Z,10.83
2023-02-27T11:52:29.594Z,10.38
2023-02-27T11:53:29.655Z,10.20
2023-02-27T11:54:29.693Z,9.73
2023-02-27T11:55:29.737Z,9.67
2023-02-27T11:56:29.782Z,9.51
2023-02-27T11:57:29.841Z,9.30
2023-02-27T11:58:29.854Z,9.34
2023-02-27T11:59:29.871Z,9.55
2023-02-27T12:00:29.865Z,9.37
2023-02-27T12:01:29.989Z,9.29
2023-02-27T12:02:30.036Z,9.39
2023-02-27T12:03:30.034Z,9.67
2023-02-27T12:04:30.076Z,10.25
2023-02-27T12:05:30.070Z,10.30
2023-02-27T12:06:30.085Z,10.67
2023-02-27T12:07:30.153Z,10.76
2023-02-27T12:08:30.147Z,10.86
2023-02-27T12:09:30.200Z,10.58
2023-02-27T12:10:30.231Z,10.21
2023-02-27T12:11:30.552Z,9.91
2023-02-27T12:12:30.268Z,9.66
2023-02-27T12:13:30.472Z,9.63
2023-02-27T12:14:30.329Z,9.62
2023-02-27T12:15:30.334Z,9.42
2023-02-27T12:16:32.953Z,9.36
2023-02-27T12:17:30.336Z,9.40
2023-02-27T12:18:30.330Z,9.11
2023-02-27T12:19:30.388Z,8.69
2023-02-27T12:20:30.414Z,8.74
2023-02-27T12:21:30.451Z,8.89
2023-02-27T12:22:30.492Z,8.84
2023-02-27T12:23:30.501Z,9.02
2023-02-27T12:24:30.511Z,9.69
2023-02-27T12:25:30.596Z,10.41
2023-02-27T12:26:30.873Z,11.27
2023-02-27T12:27:30.592Z,11.74
2023-02-27T12:28:30.637Z,11.99
2023-02-27T12:29:30.696Z,11.99
2023-02-27T12:30:30.733Z,11.63
2023-02-27T12:31:31.004Z,11.26
2023-02-27T12:32:30.837Z,10.69
2023-02-27T12:33:30.801Z,10.33
2023-02-27T12:34:30.864Z,9.90
2023-02-27T12:35:30.890Z,9.94
2023-02-27T12:36:30.872Z,9.92
2023-02-27T12:37:30.933Z,9.84
2023-02-27T12:38:30.944Z,9.67
2023-02-27T12:39:30.993Z,9.51
2023-02-27T12:40:30.984Z,9.36
2023-02-27T12:41:30.992Z,9.33
2023-02-27T12:42:31.012Z,9.09
2023-02-27T12:43:31.091Z,8.75
2023-02-27T12:44:31.130Z,8.53
2023-02-27T12:45:31.203Z,8.36
2023-02-27T12:46:31.191Z,8.18
2023-02-27T12:47:31.251Z,8.38
2023-02-27T12:48:31.274Z,8.38
2023-02-27T12:49:31.322Z,8.53
2023-02-27T12:50:31.383Z,8.46
2023-02-27T12:51:31.432Z,8.61
2023-02-27T12:52:31.464Z,8.78
2023-02-27T12:53:31.502Z,9.08
2023-02-27T12:54:31.515Z,9.26
2023-02-27T12:55:31.613Z,9.36
2023-02-27T12:56:31.552Z,9.44
2023-02-27T12:57:31.615Z,9.73
2023-02-27T12:58:31.635Z,9.55
2023-02-27T12:59:31.652Z,9.76
2023-02-27T13:00:31.753Z,10.55
2023-02-27T13:01:32.156Z,10.68
2023-02-27T13:02:31.784Z,10.10
2023-02-27T13:03:31.786Z,9.90
2023-02-27T13:04:31.901Z,10.10
2023-02-27T13:05:31.848Z,10.59
2023-02-27T13:06:31.891Z,11.12
2023-02-27T13:07:31.919Z,11.85
2023-02-27T13:08:31.924Z,12.51
2023-02-27T13:09:31.993Z,12.70
2023-02-27T13:10:31.987Z,12.95
2023-02-27T13:11:31.992Z,13.23
2023-02-27T13:12:32.008Z,13.55
2023-02-27T13:13:32.355Z,13.70
2023-02-27T13:14:32.058Z,13.24